Briefing drone pour Chabris

Rechercher une autre localisation

Conditions de vol :


Nous sommes le : Samedi 20 août 2022
Il est 05:22 UTC (07:22 LT)

Lever de soleil : 04:30 UTC (06:30 LT)
Coucher de soleil : 19:23 UTC (21:23 LT)

Météo

L'essentiel des conditions de vol

VIGILANCE MÉTÉO FRANCE - Indre (36)
Pas de vigilances particulieres
CARTE TEMSI
CARTES DES FRONTS
METAR de LFYR
LFYR 200500Z AUTO 00000KT 9999 FEW033 OVC050 17/17 Q1020

Date d'émission: 20/08/2022
Heure d'émission: 05:00 UTC
Vent: Calme
Visibilité horizontale: > 10 km
Plafond :
- Peu de nuages à 3300ft (1006m)
- Couvert à 5000ft (1524m)
Température: 17 °C
Point de rosée: 17 °C
Humidité: 100%
Pression (QNH): 1020 hPa
TAF de LFYR
AMD LFYR 191400Z 1914/2009 CNL

Conditions prévues :

Heure d'émission : Bulletin éffectué le 19 à 14:00 UTC
Prévision : Valide du 19 a 14:00 UTC au 20 a 09:00 UTC
Nuages : à 0ft (0 m)
WEBCAM POUR CHABRIS

Réglementation

Voler en sécurité

CARTES AERONAUTIQUE 1/500.000
CARTE AZBA (Reseau basse altitude)
CARTES VAC (LFYR)
SUP AIP




Chargement des AIP...
NOTAM (CHABRIS + Terrain à proximité / FIR )




Chargement des NOTAMS...
CONTACT PREFECTURE 36


Avertissement : Les données mises à disposition sont indicatives. Oxygène Drone ne pourra être tenu responsable de dégâts causés aux biens et aux personnes.